Time;durP1;ratioP1;P1;durP2;ratioP2;P2;SDS_P1;SDS_P2;PMS_P1;PMS_P2;Temp;Humidity;BMP_temperature;BMP_pressure;BME280_temperature;BME280_humidity;BME280_pressure;Samples;Min_cycle;Max_cycle;Signal;HPM_P1;HPM_P2
2021/12/05 00:19:45;;;;;;;0.90;0.80;;;;;;;;;;5034985;28;20841;-91
2021/12/05 00:22:16;;;;;;;0.80;0.80;;;;;;;;;;5027683;28;20430;-91
2021/12/05 00:24:46;;;;;;;0.90;0.80;;;;;;;;;;5026600;28;20431;-89
2021/12/05 00:27:19;;;;;;;0.90;0.83;;;;;;;;;;5015584;28;20501;-89
2021/12/05 00:32:44;;;;;;;0.93;0.83;;;;;;;;;;5029127;28;20417;-89
2021/12/05 00:48:50;;;;;;;0.83;0.70;;;;;;;;;;5027614;28;20445;-88
2021/12/05 01:05:45;;;;;;;0.80;0.70;;;;;;;;;;4925886;29;20483;-88
2021/12/05 01:08:23;;;;;;;1.10;1.00;;;;;;;;;;4998991;28;20502;-87
2021/12/05 01:13:43;;;;;;;0.87;0.80;;;;;;;;;;5025584;28;20446;-87
2021/12/05 01:16:11;;;;;;;0.90;0.80;;;;;;;;;;5011891;28;20846;-87
2021/12/05 01:18:37;;;;;;;0.80;0.70;;;;;;;;;;5011936;28;20426;-88
2021/12/05 01:21:09;;;;;;;1.23;1.13;;;;;;;;;;5025454;28;20485;-88
2021/12/05 01:23:54;;;;;;;1.00;0.90;;;;;;;;;;5010048;28;20841;-87
2021/12/05 01:26:26;;;;;;;0.87;0.80;;;;;;;;;;5006693;28;20425;-88
2021/12/05 01:31:42;;;;;;;0.80;0.70;;;;;;;;;;5026150;28;20448;-88
2021/12/05 01:37:00;;;;;;;0.90;0.80;;;;;;;;;;5025392;28;21066;-89
2021/12/05 01:52:52;;;;;;;1.00;0.90;;;;;;;;;;5027379;28;20525;-88
2021/12/05 02:08:52;;;;;;;1.00;0.90;;;;;;;;;;5026419;28;20537;-89
2021/12/05 02:15:19;;;;;;;0.80;0.80;;;;;;;;;;5024123;28;20449;-89
2021/12/05 02:35:55;;;;;;;0.80;0.70;;;;;;;;;;5023113;28;20420;-89
2021/12/05 02:41:04;;;;;;;1.63;1.53;;;;;;;;;;5028777;28;20525;-87
2021/12/05 02:43:34;;;;;;;0.90;0.90;;;;;;;;;;5019695;28;20830;-88
2021/12/05 02:46:04;;;;;;;0.80;0.80;;;;;;;;;;5010499;28;20434;-89
2021/12/05 02:48:33;;;;;;;0.80;0.80;;;;;;;;;;5032504;28;20441;-88
2021/12/05 02:51:01;;;;;;;0.87;0.80;;;;;;;;;;5031074;28;20492;-88
2021/12/05 02:56:00;;;;;;;0.80;0.80;;;;;;;;;;5027511;28;20472;-88
2021/12/05 02:58:39;;;;;;;0.80;0.70;;;;;;;;;;5027761;28;20442;-88
2021/12/05 03:01:18;;;;;;;1.00;0.90;;;;;;;;;;5027166;28;20799;-87
2021/12/05 03:03:44;;;;;;;0.80;0.70;;;;;;;;;;5024433;28;20537;-88
2021/12/05 03:06:23;;;;;;;0.80;0.80;;;;;;;;;;5028232;28;20422;-89
2021/12/05 03:08:51;;;;;;;1.90;1.80;;;;;;;;;;5027538;28;20440;-88
2021/12/05 03:11:17;;;;;;;1.03;0.97;;;;;;;;;;5029602;28;21405;-88
2021/12/05 03:13:43;;;;;;;1.63;1.27;;;;;;;;;;5027199;28;20853;-89
2021/12/05 03:16:10;;;;;;;0.97;0.90;;;;;;;;;;5027962;28;20469;-89
2021/12/05 03:18:37;;;;;;;0.80;0.80;;;;;;;;;;5009184;28;20529;-89
2021/12/05 03:21:04;;;;;;;1.87;1.70;;;;;;;;;;5028301;28;20434;-89
2021/12/05 03:23:30;;;;;;;0.80;0.80;;;;;;;;;;5009533;28;20438;-90
2021/12/05 03:25:56;;;;;;;1.00;0.90;;;;;;;;;;5028064;28;20485;-89
2021/12/05 03:28:23;;;;;;;0.80;0.70;;;;;;;;;;5031869;28;20516;-88
2021/12/05 03:30:49;;;;;;;0.80;0.73;;;;;;;;;;5027479;28;20573;-88
2021/12/05 03:33:15;;;;;;;0.80;0.80;;;;;;;;;;5028006;28;20533;-88
2021/12/05 03:35:40;;;;;;;0.80;0.80;;;;;;;;;;5025653;28;20454;-88
2021/12/05 03:38:07;;;;;;;1.00;0.90;;;;;;;;;;5009879;28;20771;-87
2021/12/05 03:40:33;;;;;;;0.93;0.90;;;;;;;;;;5009848;28;21008;-88
2021/12/05 03:43:01;;;;;;;1.00;0.90;;;;;;;;;;5012340;28;20941;-89
2021/12/05 03:45:30;;;;;;;0.80;0.80;;;;;;;;;;5028745;28;20441;-89
2021/12/05 03:47:56;;;;;;;0.90;0.80;;;;;;;;;;5013211;28;20441;-88
2021/12/05 03:50:22;;;;;;;0.80;0.70;;;;;;;;;;5034294;28;20481;-88
2021/12/05 03:52:48;;;;;;;1.00;0.90;;;;;;;;;;5013476;28;20441;-89
2021/12/05 03:55:14;;;;;;;1.00;0.90;;;;;;;;;;5013460;28;20521;-89
2021/12/05 03:57:42;;;;;;;1.00;0.90;;;;;;;;;;5032632;28;20426;-89
2021/12/05 04:00:10;;;;;;;0.80;0.80;;;;;;;;;;5014560;28;20422;-90
2021/12/05 04:02:36;;;;;;;0.80;0.80;;;;;;;;;;5030939;28;20505;-89
2021/12/05 04:05:02;;;;;;;0.80;0.80;;;;;;;;;;5027326;28;21119;-89
2021/12/05 04:07:28;;;;;;;0.80;0.80;;;;;;;;;;5031558;28;20441;-88
2021/12/05 04:09:54;;;;;;;0.97;0.87;;;;;;;;;;5030761;28;20488;-88
2021/12/05 04:12:20;;;;;;;4.90;1.80;;;;;;;;;;5015256;28;20520;-89
2021/12/05 04:14:48;;;;;;;1.10;1.00;;;;;;;;;;5012883;28;20466;-88
2021/12/05 04:17:16;;;;;;;1.00;0.90;;;;;;;;;;5030187;28;21029;-89
2021/12/05 04:19:42;;;;;;;0.90;0.80;;;;;;;;;;5040990;28;20419;-89
2021/12/05 04:22:09;;;;;;;0.90;0.80;;;;;;;;;;5012013;28;20457;-88
2021/12/05 04:24:35;;;;;;;0.80;0.80;;;;;;;;;;5012655;28;20529;-90
2021/12/05 04:27:01;;;;;;;0.80;0.80;;;;;;;;;;5010044;28;20426;-89
2021/12/05 04:29:27;;;;;;;0.90;0.90;;;;;;;;;;5031269;28;20549;-91
2021/12/05 04:31:53;;;;;;;0.90;0.90;;;;;;;;;;5030605;28;20930;-89
2021/12/05 04:34:19;;;;;;;0.80;0.60;;;;;;;;;;5009421;28;20478;-89
2021/12/05 04:36:46;;;;;;;0.80;0.80;;;;;;;;;;5030857;28;20442;-89
2021/12/05 04:39:12;;;;;;;0.87;0.80;;;;;;;;;;5030463;28;20507;-89
2021/12/05 04:41:40;;;;;;;0.93;0.83;;;;;;;;;;5013385;28;21664;-89
2021/12/05 04:44:07;;;;;;;1.00;0.90;;;;;;;;;;5031743;28;20512;-89
2021/12/05 04:46:32;;;;;;;0.80;0.70;;;;;;;;;;5030463;28;20433;-89
2021/12/05 04:48:58;;;;;;;1.00;0.90;;;;;;;;;;5031614;28;20431;-89
2021/12/05 04:51:27;;;;;;;1.00;0.90;;;;;;;;;;5007990;28;20517;-89
2021/12/05 04:53:54;;;;;;;0.97;0.87;;;;;;;;;;5030352;28;20438;-89
2021/12/05 04:56:20;;;;;;;2.50;2.40;;;;;;;;;;5027308;28;20449;-90
2021/12/05 04:58:46;;;;;;;1.00;0.90;;;;;;;;;;5027537;28;20427;-89
2021/12/05 05:01:12;;;;;;;0.97;0.87;;;;;;;;;;5011402;28;20791;-90
2021/12/05 05:03:38;;;;;;;1.20;1.10;;;;;;;;;;5012399;28;20426;-90
2021/12/05 05:06:11;;;;;;;1.00;0.90;;;;;;;;;;5011270;28;20431;-90
2021/12/05 05:08:37;;;;;;;1.30;1.20;;;;;;;;;;5009474;28;20442;-89
2021/12/05 05:11:05;;;;;;;1.10;1.00;;;;;;;;;;5011095;28;20527;-89
2021/12/05 05:13:32;;;;;;;0.90;0.90;;;;;;;;;;5007395;28;20466;-89
2021/12/05 05:15:58;;;;;;;0.80;0.80;;;;;;;;;;5026717;28;20457;-89
2021/12/05 05:18:29;;;;;;;0.80;0.77;;;;;;;;;;5011390;28;20513;-89
2021/12/05 05:21:19;;;;;;;1.17;1.10;;;;;;;;;;5025142;28;20462;-90
2021/12/05 05:24:10;;;;;;;0.80;0.80;;;;;;;;;;5011948;28;20813;-89
2021/12/05 05:40:17;;;;;;;1.00;0.90;;;;;;;;;;5028363;28;20430;-89
2021/12/05 05:45:43;;;;;;;0.80;0.80;;;;;;;;;;5027000;28;20422;-88
2021/12/05 05:50:35;;;;;;;1.00;0.90;;;;;;;;;;5025829;28;21027;-89
2021/12/05 05:53:01;;;;;;;1.00;0.90;;;;;;;;;;5025731;28;20529;-89
2021/12/05 05:55:27;;;;;;;1.10;1.00;;;;;;;;;;5027025;28;20445;-90
2021/12/05 06:00:31;;;;;;;0.90;0.80;;;;;;;;;;5024487;28;20947;-89
2021/12/05 06:05:41;;;;;;;1.10;1.00;;;;;;;;;;5028560;28;20425;-89
2021/12/05 06:08:07;;;;;;;1.00;0.90;;;;;;;;;;5028458;28;20541;-91
2021/12/05 06:10:34;;;;;;;0.80;0.80;;;;;;;;;;5021639;28;20585;-89
2021/12/05 06:13:00;;;;;;;0.80;0.80;;;;;;;;;;5026690;28;20426;-88
2021/12/05 06:15:27;;;;;;;1.13;1.03;;;;;;;;;;5010499;28;20493;-89
2021/12/05 06:17:54;;;;;;;0.80;0.77;;;;;;;;;;5017255;28;20960;-89
2021/12/05 06:20:23;;;;;;;1.00;0.90;;;;;;;;;;5014548;28;20968;-89
2021/12/05 06:22:49;;;;;;;1.00;0.90;;;;;;;;;;5021660;28;21037;-89
2021/12/05 06:25:21;;;;;;;3.10;2.90;;;;;;;;;;5026813;28;20442;-90
2021/12/05 06:27:49;;;;;;;0.80;0.80;;;;;;;;;;5008203;28;20446;-89
2021/12/05 06:30:32;;;;;;;0.83;0.80;;;;;;;;;;5023640;28;20498;-89
2021/12/05 06:38:52;;;;;;;0.93;0.87;;;;;;;;;;5018173;28;20447;-89
2021/12/05 06:41:33;;;;;;;0.97;0.90;;;;;;;;;;5020985;28;20468;-89
2021/12/05 06:46:44;;;;;;;0.80;0.73;;;;;;;;;;5027065;28;20426;-89
2021/12/05 06:49:10;;;;;;;0.80;0.80;;;;;;;;;;5029673;28;20483;-89
2021/12/05 06:51:36;;;;;;;0.80;0.80;;;;;;;;;;5025221;28;20533;-89
2021/12/05 06:54:02;;;;;;;0.80;0.80;;;;;;;;;;5026435;28;20437;-90
2021/12/05 06:56:29;;;;;;;1.47;1.40;;;;;;;;;;5011780;28;20434;-91
2021/12/05 06:58:55;;;;;;;0.93;0.87;;;;;;;;;;5028910;28;20466;-90
2021/12/05 07:01:21;;;;;;;0.80;0.80;;;;;;;;;;5028547;28;20477;-90
2021/12/05 07:03:49;;;;;;;0.97;0.87;;;;;;;;;;5026563;28;20439;-89
2021/12/05 07:06:22;;;;;;;1.07;0.97;;;;;;;;;;5008622;28;20452;-89
2021/12/05 07:08:50;;;;;;;1.10;1.00;;;;;;;;;;5008455;28;20577;-90
2021/12/05 07:11:23;;;;;;;1.87;1.77;;;;;;;;;;5009695;28;20522;-89
2021/12/05 07:19:30;;;;;;;0.80;0.80;;;;;;;;;;4983577;28;20436;-90
2021/12/05 07:22:10;;;;;;;1.43;1.33;;;;;;;;;;5003611;28;20438;-89
2021/12/05 07:24:50;;;;;;;1.00;0.90;;;;;;;;;;5020903;28;20426;-89
2021/12/05 07:40:56;;;;;;;1.37;1.27;;;;;;;;;;5021823;28;20454;-87
2021/12/05 07:43:22;;;;;;;1.00;0.90;;;;;;;;;;5025768;28;20422;-87
2021/12/05 07:45:56;;;;;;;1.07;0.97;;;;;;;;;;5009182;28;20438;-87
2021/12/05 07:48:32;;;;;;;1.93;1.23;;;;;;;;;;5027964;28;20426;-89
2021/12/05 07:51:20;;;;;;;22.57;2.43;;;;;;;;;;5020234;28;20572;-89
2021/12/05 07:54:36;;;;;;;1.00;0.90;;;;;;;;;;5011936;28;21138;-89
2021/12/05 07:56:49;;;;;;;1.47;1.37;;;;;;;;;;5020541;28;20427;-90
2021/12/05 08:14:24;;;;;;;1.00;0.90;;;;;;;;;;5024792;28;20866;-90
2021/12/05 08:15:39;;;;;;;0.93;0.90;;;;;;;;;;5023669;28;20945;-86
2021/12/05 08:18:04;;;;;;;1.10;1.00;;;;;;;;;;5022600;28;20956;-86
2021/12/05 08:20:33;;;;;;;1.10;1.00;;;;;;;;;;5026701;28;20529;-87
2021/12/05 08:23:00;;;;;;;0.83;0.80;;;;;;;;;;5006206;28;21076;-88
2021/12/05 08:25:29;;;;;;;1.10;1.00;;;;;;;;;;5015838;28;20515;-86
2021/12/05 08:28:04;;;;;;;0.80;0.80;;;;;;;;;;5026099;28;20434;-86
2021/12/05 08:30:32;;;;;;;0.80;0.80;;;;;;;;;;5014394;28;20500;-86
2021/12/05 09:08:27;;;;;;;1.30;1.20;;;;;;;;;;5026075;28;20504;-89
2021/12/05 09:40:16;;;;;;;1.77;1.67;;;;;;;;;;5030461;28;20464;-89
2021/12/05 09:51:18;;;;;;;2.40;2.07;;;;;;;;;;5022245;28;20489;-88
2021/12/05 10:02:33;;;;;;;5.40;2.90;;;;;;;;;;5023921;28;20442;-89
2021/12/05 10:10:24;;;;;;;1.20;1.10;;;;;;;;;;5020737;28;21002;-88
2021/12/05 10:13:04;;;;;;;1.13;1.03;;;;;;;;;;5006148;28;20495;-89
2021/12/05 10:16:01;;;;;;;3.20;2.97;;;;;;;;;;5026119;28;20450;-89
2021/12/05 10:18:54;;;;;;;1.10;1.00;;;;;;;;;;5032223;28;20523;-86
2021/12/05 10:37:54;;;;;;;0.87;0.87;;;;;;;;;;5030936;28;20518;-87
2021/12/05 10:40:30;;;;;;;1.23;1.13;;;;;;;;;;5006338;28;20550;-87
2021/12/05 10:42:56;;;;;;;2.03;1.90;;;;;;;;;;5029998;28;20420;-86
2021/12/05 10:45:22;;;;;;;0.80;0.80;;;;;;;;;;5033454;28;20450;-85
2021/12/05 10:47:50;;;;;;;0.87;0.80;;;;;;;;;;5023989;28;20495;-85
2021/12/05 10:50:29;;;;;;;1.00;0.90;;;;;;;;;;5028840;28;20293;-87
2021/12/05 10:53:13;;;;;;;0.80;0.80;;;;;;;;;;5023902;28;20522;-86
2021/12/05 10:55:39;;;;;;;1.10;1.00;;;;;;;;;;5009568;28;20537;-86
2021/12/05 10:58:06;;;;;;;0.80;0.67;;;;;;;;;;5028068;28;20526;-86
2021/12/05 11:00:32;;;;;;;1.77;1.67;;;;;;;;;;5010007;28;20441;-86
2021/12/05 11:03:17;;;;;;;1.43;1.33;;;;;;;;;;5004107;28;20455;-87
2021/12/05 11:05:44;;;;;;;3.00;1.23;;;;;;;;;;5023438;28;20492;-86
2021/12/05 11:08:28;;;;;;;0.87;0.80;;;;;;;;;;5023781;28;20442;-86
2021/12/05 11:11:10;;;;;;;1.70;1.60;;;;;;;;;;5023210;28;20928;-86
2021/12/05 11:13:37;;;;;;;0.80;0.80;;;;;;;;;;5011126;28;20456;-86
2021/12/05 11:16:05;;;;;;;0.90;0.80;;;;;;;;;;5023698;28;20442;-86
2021/12/05 11:18:44;;;;;;;0.80;0.70;;;;;;;;;;5024711;28;20453;-87
2021/12/05 11:21:33;;;;;;;1.77;1.67;;;;;;;;;;5028126;28;20487;-85
2021/12/05 11:24:11;;;;;;;0.80;0.70;;;;;;;;;;5015867;28;20462;-86
2021/12/05 11:26:38;;;;;;;0.90;0.80;;;;;;;;;;5007104;28;20438;-85
2021/12/05 11:29:04;;;;;;;1.03;0.93;;;;;;;;;;5007475;28;20573;-85
2021/12/05 11:31:31;;;;;;;0.93;0.90;;;;;;;;;;5027069;28;20473;-85
2021/12/05 11:33:58;;;;;;;0.80;0.80;;;;;;;;;;5027091;28;20532;-85
2021/12/05 11:36:28;;;;;;;1.37;1.27;;;;;;;;;;5028333;28;20438;-84
2021/12/05 11:38:55;;;;;;;0.83;0.70;;;;;;;;;;5003840;28;20961;-86
2021/12/05 11:41:22;;;;;;;1.00;0.90;;;;;;;;;;5015987;28;20524;-83
2021/12/05 11:43:51;;;;;;;1.00;0.90;;;;;;;;;;5008339;28;20441;-83
2021/12/05 11:46:25;;;;;;;0.90;0.90;;;;;;;;;;5023186;28;20438;-84
2021/12/05 11:48:53;;;;;;;0.80;0.70;;;;;;;;;;5021184;28;20441;-84
2021/12/05 11:51:21;;;;;;;1.00;0.90;;;;;;;;;;5020069;28;21016;-83
2021/12/05 11:53:50;;;;;;;1.60;1.27;;;;;;;;;;5003127;28;20446;-84
2021/12/05 11:56:19;;;;;;;3.33;3.10;;;;;;;;;;5018896;28;20430;-83
2021/12/05 11:58:45;;;;;;;1.33;1.23;;;;;;;;;;5032239;28;20472;-85
2021/12/05 12:01:13;;;;;;;0.80;0.80;;;;;;;;;;5013260;28;20509;-83
2021/12/05 12:03:40;;;;;;;0.80;0.70;;;;;;;;;;5030718;28;20429;-84
2021/12/05 12:06:06;;;;;;;1.00;0.90;;;;;;;;;;5025714;28;20446;-84
2021/12/05 12:08:32;;;;;;;1.57;1.47;;;;;;;;;;5027853;28;20456;-83
2021/12/05 12:11:01;;;;;;;1.10;1.00;;;;;;;;;;5010685;28;20615;-84
2021/12/05 12:13:34;;;;;;;0.80;0.80;;;;;;;;;;5009469;28;20863;-84
2021/12/05 12:16:03;;;;;;;1.10;1.00;;;;;;;;;;5003770;28;20425;-84
2021/12/05 12:18:32;;;;;;;1.00;0.90;;;;;;;;;;5026825;28;20442;-84
2021/12/05 12:21:04;;;;;;;1.20;1.10;;;;;;;;;;5024400;28;20545;-83
2021/12/05 12:23:30;;;;;;;0.80;0.80;;;;;;;;;;5013196;28;20426;-83
2021/12/05 12:25:58;;;;;;;0.80;0.73;;;;;;;;;;5008651;28;20448;-84
2021/12/05 12:28:25;;;;;;;1.53;1.43;;;;;;;;;;5031128;28;20436;-84
2021/12/05 12:30:56;;;;;;;0.97;0.87;;;;;;;;;;5029853;28;20566;-83
2021/12/05 12:33:26;;;;;;;1.07;0.97;;;;;;;;;;5024623;28;20521;-83
2021/12/05 12:35:52;;;;;;;0.80;0.80;;;;;;;;;;5027108;28;20434;-83
2021/12/05 12:38:20;;;;;;;1.00;0.90;;;;;;;;;;5010734;28;20975;-83
2021/12/05 12:40:49;;;;;;;0.80;0.70;;;;;;;;;;5025386;28;20464;-83
2021/12/05 12:43:41;;;;;;;1.67;1.57;;;;;;;;;;5026108;28;20788;-83
2021/12/05 12:46:22;;;;;;;0.93;0.87;;;;;;;;;;4984908;28;20521;-84
2021/12/05 12:48:49;;;;;;;0.80;0.80;;;;;;;;;;5022355;28;20449;-84
2021/12/05 12:51:44;;;;;;;1.20;1.10;;;;;;;;;;5025232;28;21020;-83
2021/12/05 12:54:14;;;;;;;0.87;0.80;;;;;;;;;;4987909;28;20501;-83
2021/12/05 12:56:41;;;;;;;1.17;1.10;;;;;;;;;;5027540;28;20969;-84
2021/12/05 12:59:12;;;;;;;1.73;1.63;;;;;;;;;;5027172;28;20434;-84
2021/12/05 13:02:01;;;;;;;0.87;0.80;;;;;;;;;;5026381;28;20810;-85
2021/12/05 13:04:49;;;;;;;1.10;1.00;;;;;;;;;;5030812;28;20997;-84
2021/12/05 13:12:45;;;;;;;0.83;0.77;;;;;;;;;;5008251;28;20503;-84
2021/12/05 13:15:29;;;;;;;1.23;1.00;;;;;;;;;;5020501;28;20444;-83
2021/12/05 13:17:58;;;;;;;0.80;0.70;;;;;;;;;;4994052;28;20848;-84
2021/12/05 13:20:46;;;;;;;0.90;0.80;;;;;;;;;;4993637;28;20418;-83
2021/12/05 13:23:21;;;;;;;1.10;1.00;;;;;;;;;;4997306;28;20444;-83
2021/12/05 13:26:02;;;;;;;0.80;0.70;;;;;;;;;;4996688;28;20803;-83
2021/12/05 13:28:37;;;;;;;0.90;0.80;;;;;;;;;;5016611;28;20435;-84
2021/12/05 13:31:41;;;;;;;1.30;1.20;;;;;;;;;;5012959;28;20612;-84
2021/12/05 13:34:46;;;;;;;1.00;0.90;;;;;;;;;;4951576;28;20568;-83
2021/12/05 13:37:13;;;;;;;0.93;0.83;;;;;;;;;;4879050;29;20488;-83
2021/12/05 13:39:46;;;;;;;0.80;0.80;;;;;;;;;;4910271;29;20900;-83
2021/12/05 13:42:17;;;;;;;0.80;0.80;;;;;;;;;;4964905;28;20441;-83
2021/12/05 13:45:03;;;;;;;0.90;0.80;;;;;;;;;;5006553;28;20428;-84
2021/12/05 13:47:56;;;;;;;1.00;0.90;;;;;;;;;;5008969;28;20462;-83
2021/12/05 13:50:25;;;;;;;0.80;0.70;;;;;;;;;;4982091;28;20537;-84
2021/12/05 13:53:03;;;;;;;0.80;0.80;;;;;;;;;;5011081;28;20432;-83
2021/12/05 13:56:05;;;;;;;0.80;0.70;;;;;;;;;;5019019;28;20441;-82
2021/12/05 13:58:43;;;;;;;0.80;0.80;;;;;;;;;;5014985;28;20509;-82
2021/12/05 14:01:26;;;;;;;0.80;0.80;;;;;;;;;;5009828;28;20973;-83
2021/12/05 14:04:10;;;;;;;1.03;0.93;;;;;;;;;;5007646;28;20443;-83
2021/12/05 14:06:35;;;;;;;1.40;1.30;;;;;;;;;;4995787;28;20431;-82
2021/12/05 14:09:04;;;;;;;0.90;0.83;;;;;;;;;;4992294;28;20533;-83
2021/12/05 14:11:31;;;;;;;1.13;1.03;;;;;;;;;;5023816;28;20489;-82
2021/12/05 14:13:57;;;;;;;1.10;1.00;;;;;;;;;;5029687;28;20441;-82
2021/12/05 14:16:30;;;;;;;1.30;1.20;;;;;;;;;;5027824;28;20446;-82
2021/12/05 14:18:56;;;;;;;1.93;1.83;;;;;;;;;;5030637;28;20453;-89
2021/12/05 14:21:23;;;;;;;0.90;0.80;;;;;;;;;;5013180;28;20461;-89
2021/12/05 14:23:54;;;;;;;0.80;0.80;;;;;;;;;;5011849;28;20446;-88
2021/12/05 14:26:21;;;;;;;0.80;0.70;;;;;;;;;;5014490;28;20473;-87
2021/12/05 14:28:56;;;;;;;1.30;1.20;;;;;;;;;;5024960;28;20445;-89
2021/12/05 14:31:24;;;;;;;0.80;0.80;;;;;;;;;;5030225;28;20564;-89
2021/12/05 14:33:51;;;;;;;1.00;0.90;;;;;;;;;;5029977;28;20442;-89
2021/12/05 14:36:22;;;;;;;6.10;3.93;;;;;;;;;;5026628;28;20444;-89
2021/12/05 14:38:48;;;;;;;0.80;0.73;;;;;;;;;;5002560;28;20430;-89
2021/12/05 14:41:14;;;;;;;1.00;0.90;;;;;;;;;;5028673;28;20426;-85
2021/12/05 14:43:40;;;;;;;1.00;0.90;;;;;;;;;;5029116;28;20446;-89
2021/12/05 14:46:06;;;;;;;1.00;0.90;;;;;;;;;;5022030;28;20434;-88
2021/12/05 14:48:32;;;;;;;0.90;0.80;;;;;;;;;;5017505;28;20473;-87
2021/12/05 14:51:00;;;;;;;1.00;0.90;;;;;;;;;;5026475;28;20535;-88
2021/12/05 14:53:28;;;;;;;1.10;1.00;;;;;;;;;;5020014;28;20430;-86
2021/12/05 14:55:58;;;;;;;0.80;0.80;;;;;;;;;;5006503;28;20498;-87
2021/12/05 14:58:25;;;;;;;4.73;2.20;;;;;;;;;;5023489;28;20443;-84
2021/12/05 15:00:55;;;;;;;1.17;1.07;;;;;;;;;;5021907;28;20580;-88
2021/12/05 15:03:23;;;;;;;1.30;1.20;;;;;;;;;;5018342;28;20506;-86
2021/12/05 15:05:51;;;;;;;0.90;0.80;;;;;;;;;;5011324;28;20529;-88
2021/12/05 15:08:20;;;;;;;2.07;1.97;;;;;;;;;;5011810;28;20522;-85
2021/12/05 15:10:47;;;;;;;0.80;0.77;;;;;;;;;;5009921;28;21082;-85
2021/12/05 15:13:15;;;;;;;1.57;1.47;;;;;;;;;;5009869;28;20437;-85
2021/12/05 15:15:41;;;;;;;2.80;1.57;;;;;;;;;;5024121;28;20809;-87
2021/12/05 15:18:13;;;;;;;0.90;0.80;;;;;;;;;;5002965;28;20430;-86
2021/12/05 15:20:39;;;;;;;1.93;1.57;;;;;;;;;;5018623;28;20533;-86
2021/12/05 15:23:07;;;;;;;1.87;1.77;;;;;;;;;;5019639;28;20501;-86
2021/12/05 15:25:33;;;;;;;1.00;0.90;;;;;;;;;;5025874;28;20973;-89
2021/12/05 15:28:00;;;;;;;1.00;0.90;;;;;;;;;;5010892;28;20448;-84
2021/12/05 15:30:28;;;;;;;1.20;1.10;;;;;;;;;;5024240;28;20470;-86
2021/12/05 15:32:56;;;;;;;3.47;1.60;;;;;;;;;;5016697;28;20453;-89
2021/12/05 15:35:23;;;;;;;0.80;0.70;;;;;;;;;;5004328;28;20537;-86
2021/12/05 15:37:50;;;;;;;5.60;1.23;;;;;;;;;;5014544;28;20451;-86
2021/12/05 15:40:17;;;;;;;0.90;0.80;;;;;;;;;;5033030;28;20456;-84
2021/12/05 15:42:43;;;;;;;0.80;0.80;;;;;;;;;;5014556;28;20513;-88
2021/12/05 15:45:10;;;;;;;2.73;2.63;;;;;;;;;;5031048;28;20521;-87
2021/12/05 15:47:38;;;;;;;0.80;0.70;;;;;;;;;;5027491;28;20565;-87
2021/12/05 15:50:06;;;;;;;1.10;1.00;;;;;;;;;;5014754;28;20482;-92
2021/12/05 15:52:32;;;;;;;2.07;1.63;;;;;;;;;;5008628;28;20443;-85
2021/12/05 15:54:59;;;;;;;0.90;0.80;;;;;;;;;;5014299;28;20449;-84
2021/12/05 15:57:31;;;;;;;1.10;1.00;;;;;;;;;;5014015;28;20238;-85
2021/12/05 15:59:58;;;;;;;1.00;0.90;;;;;;;;;;5013979;28;20466;-91
2021/12/05 16:02:24;;;;;;;2.63;2.50;;;;;;;;;;5014511;28;20431;-91
2021/12/05 16:04:50;;;;;;;1.37;1.27;;;;;;;;;;5034735;28;20434;-92
2021/12/05 16:07:17;;;;;;;1.53;1.43;;;;;;;;;;5027974;28;20785;-91
2021/12/05 16:09:43;;;;;;;1.80;1.70;;;;;;;;;;5015490;28;20805;-90
2021/12/05 16:12:17;;;;;;;0.80;0.70;;;;;;;;;;5013728;28;20960;-87
2021/12/05 16:14:45;;;;;;;0.87;0.77;;;;;;;;;;5011191;28;20965;-91
2021/12/05 16:17:20;;;;;;;1.00;0.90;;;;;;;;;;5017690;28;20434;-92
2021/12/05 16:20:09;;;;;;;1.03;0.93;;;;;;;;;;5027500;28;20521;-92
2021/12/05 16:22:54;;;;;;;1.10;1.00;;;;;;;;;;5030690;28;20525;-92
2021/12/05 16:25:20;;;;;;;0.80;0.80;;;;;;;;;;5030459;28;20497;-92
2021/12/05 16:27:51;;;;;;;1.30;1.20;;;;;;;;;;5016773;28;20544;-90
2021/12/05 16:30:21;;;;;;;1.00;0.90;;;;;;;;;;5013405;28;20473;-92
2021/12/05 16:32:51;;;;;;;0.80;0.70;;;;;;;;;;5028581;28;20510;-89
2021/12/05 16:35:43;;;;;;;0.83;0.80;;;;;;;;;;5016774;28;20470;-90
2021/12/05 16:38:20;;;;;;;0.80;0.73;;;;;;;;;;5029187;28;20470;-90
2021/12/05 16:40:51;;;;;;;0.80;0.70;;;;;;;;;;5007721;28;20446;-89
2021/12/05 16:43:17;;;;;;;0.80;0.70;;;;;;;;;;5035573;28;20468;-90
2021/12/05 16:45:43;;;;;;;0.80;0.73;;;;;;;;;;5045657;28;20989;-89
2021/12/05 16:48:09;;;;;;;1.27;1.17;;;;;;;;;;5017239;28;20434;-90
2021/12/05 16:50:35;;;;;;;1.10;1.00;;;;;;;;;;5041519;28;20520;-91
2021/12/05 16:53:01;;;;;;;0.80;0.80;;;;;;;;;;5027216;28;20506;-89
2021/12/05 16:55:30;;;;;;;0.93;0.83;;;;;;;;;;5030449;28;20448;-89
2021/12/05 16:58:20;;;;;;;0.80;0.70;;;;;;;;;;5032777;28;20434;-87
2021/12/05 17:00:50;;;;;;;0.80;0.70;;;;;;;;;;5029767;28;20430;-88
2021/12/05 17:03:18;;;;;;;1.00;0.90;;;;;;;;;;5030625;28;20430;-89
2021/12/05 17:05:46;;;;;;;0.90;0.80;;;;;;;;;;5031010;28;20517;-89
2021/12/05 17:08:16;;;;;;;1.00;0.90;;;;;;;;;;5014323;28;20426;-89
2021/12/05 17:10:42;;;;;;;1.30;1.20;;;;;;;;;;5008292;28;20508;-87
2021/12/05 17:13:16;;;;;;;0.90;0.80;;;;;;;;;;5031640;28;20973;-84
2021/12/05 17:15:59;;;;;;;0.83;0.80;;;;;;;;;;5032258;28;20477;-83
2021/12/05 17:18:36;;;;;;;0.90;0.80;;;;;;;;;;5012619;28;20422;-84
2021/12/05 17:21:09;;;;;;;0.80;0.73;;;;;;;;;;5015671;28;20450;-85
2021/12/05 17:23:38;;;;;;;1.00;0.90;;;;;;;;;;5030465;28;20949;-84
2021/12/05 17:26:24;;;;;;;1.03;0.93;;;;;;;;;;5031621;28;20910;-84
2021/12/05 17:28:52;;;;;;;1.00;0.90;;;;;;;;;;5008867;28;20444;-83
2021/12/05 17:31:24;;;;;;;0.80;0.80;;;;;;;;;;5028383;28;20489;-83
2021/12/05 17:33:54;;;;;;;0.80;0.80;;;;;;;;;;5011198;28;20449;-82
2021/12/05 17:36:28;;;;;;;1.43;1.33;;;;;;;;;;5020697;28;20441;-82
2021/12/05 17:38:56;;;;;;;0.80;0.80;;;;;;;;;;5035326;28;20430;-83
2021/12/05 17:41:24;;;;;;;0.90;0.80;;;;;;;;;;5010769;28;20446;-83
2021/12/05 17:43:50;;;;;;;1.10;1.00;;;;;;;;;;5023077;28;20431;-82
2021/12/05 17:46:17;;;;;;;1.10;0.80;;;;;;;;;;5022009;28;20446;-82
2021/12/05 17:48:43;;;;;;;1.60;1.50;;;;;;;;;;5009851;28;20437;-82
2021/12/05 17:51:10;;;;;;;1.13;1.03;;;;;;;;;;5024845;28;21369;-82
2021/12/05 17:53:37;;;;;;;2.03;1.93;;;;;;;;;;5035185;28;20437;-82
2021/12/05 17:56:14;;;;;;;0.87;0.80;;;;;;;;;;5010248;28;20445;-83
2021/12/05 18:03:56;;;;;;;1.20;1.00;;;;;;;;;;5028071;28;20421;-87
2021/12/05 18:06:22;;;;;;;3.03;2.83;;;;;;;;;;5030736;28;20508;-86
2021/12/05 18:08:49;;;;;;;0.90;0.80;;;;;;;;;;5029929;28;20532;-87
2021/12/05 18:11:20;;;;;;;2.80;1.47;;;;;;;;;;5023863;28;20586;-86
2021/12/05 18:13:51;;;;;;;1.30;1.20;;;;;;;;;;5028939;28;20976;-87
2021/12/05 18:16:23;;;;;;;3.57;1.30;;;;;;;;;;5024350;28;20513;-86
2021/12/05 18:18:49;;;;;;;0.90;0.80;;;;;;;;;;5029154;28;20426;-86
2021/12/05 18:21:15;;;;;;;0.80;0.77;;;;;;;;;;5023969;28;21347;-86
2021/12/05 18:23:41;;;;;;;1.03;0.93;;;;;;;;;;5030271;28;20434;-87
2021/12/05 18:26:07;;;;;;;1.37;1.27;;;;;;;;;;5028107;28;20430;-86
2021/12/05 18:28:35;;;;;;;0.80;0.70;;;;;;;;;;5020809;28;20474;-88
2021/12/05 18:31:01;;;;;;;5.33;3.00;;;;;;;;;;5006300;28;20478;-87
2021/12/05 18:33:30;;;;;;;1.10;1.00;;;;;;;;;;5029617;28;20434;-86
2021/12/05 18:35:56;;;;;;;2.30;2.20;;;;;;;;;;5016270;28;20881;-87
2021/12/05 18:38:24;;;;;;;1.30;1.20;;;;;;;;;;5007554;28;20459;-87
2021/12/05 18:40:52;;;;;;;3.83;3.63;;;;;;;;;;5034653;28;20480;-86
2021/12/05 18:43:21;;;;;;;0.80;0.80;;;;;;;;;;5004342;28;20901;-86
2021/12/05 18:45:47;;;;;;;0.87;0.80;;;;;;;;;;5022418;28;20443;-87
2021/12/05 18:48:13;;;;;;;0.90;0.80;;;;;;;;;;5012109;28;20533;-86
2021/12/05 18:50:40;;;;;;;1.43;1.33;;;;;;;;;;5029179;28;20539;-86
2021/12/05 18:53:06;;;;;;;0.90;0.80;;;;;;;;;;5026585;28;20431;-84
2021/12/05 18:55:34;;;;;;;0.80;0.80;;;;;;;;;;5026439;28;20444;-86
2021/12/05 18:58:07;;;;;;;0.87;0.80;;;;;;;;;;5029229;28;20776;-85
2021/12/05 19:00:40;;;;;;;0.80;0.70;;;;;;;;;;5019639;28;20530;-86
2021/12/05 19:05:56;;;;;;;0.83;0.70;;;;;;;;;;5030431;28;20854;-89
2021/12/05 19:13:40;;;;;;;0.90;0.80;;;;;;;;;;5027644;28;20525;-86
2021/12/05 19:16:06;;;;;;;0.80;0.80;;;;;;;;;;5024649;28;20517;-89
2021/12/05 19:18:32;;;;;;;1.00;0.90;;;;;;;;;;5028056;28;20440;-89
2021/12/05 19:20:58;;;;;;;0.80;0.70;;;;;;;;;;5028234;28;20485;-88
2021/12/05 19:23:24;;;;;;;0.80;0.80;;;;;;;;;;5029906;28;20434;-88
2021/12/05 19:25:51;;;;;;;0.80;0.70;;;;;;;;;;5027912;28;20444;-88
2021/12/05 19:28:17;;;;;;;0.80;0.80;;;;;;;;;;5011146;28;20473;-89
2021/12/05 19:30:47;;;;;;;0.80;0.70;;;;;;;;;;5009120;28;20482;-88
2021/12/05 19:33:14;;;;;;;0.90;0.80;;;;;;;;;;5014993;28;20439;-87
2021/12/05 19:35:41;;;;;;;0.80;0.70;;;;;;;;;;5010514;28;20926;-85
2021/12/05 19:38:08;;;;;;;1.27;1.00;;;;;;;;;;5021102;28;20526;-89
2021/12/05 19:40:35;;;;;;;0.97;0.87;;;;;;;;;;5012307;28;20456;-89
2021/12/05 19:43:01;;;;;;;0.80;0.70;;;;;;;;;;5015302;28;20517;-90
2021/12/05 19:45:29;;;;;;;0.80;0.67;;;;;;;;;;5011840;28;20496;-89
2021/12/05 19:47:55;;;;;;;0.80;0.80;;;;;;;;;;5005542;28;20442;-88
2021/12/05 19:50:23;;;;;;;0.80;0.70;;;;;;;;;;5019003;28;20488;-88
2021/12/05 19:52:50;;;;;;;0.90;0.80;;;;;;;;;;5002996;28;20451;-89
2021/12/05 19:55:16;;;;;;;0.80;0.70;;;;;;;;;;5018482;28;20434;-89
2021/12/05 19:57:42;;;;;;;0.80;0.70;;;;;;;;;;5024833;28;20519;-89
2021/12/05 20:00:12;;;;;;;1.00;0.90;;;;;;;;;;5034358;28;20454;-89
2021/12/05 20:02:38;;;;;;;0.80;0.60;;;;;;;;;;5019651;28;20431;-88